createdAt,value
2019-03-15T00:00:39.824Z,22.30
2019-03-15T00:03:16.978Z,22.20
2019-03-15T00:05:54.081Z,22.30
2019-03-15T00:08:31.374Z,21.80
2019-03-15T00:13:43.282Z,22.60
2019-03-15T00:21:29.939Z,22.20
2019-03-15T00:24:06.997Z,22.00
2019-03-15T00:26:44.083Z,22.30
2019-03-15T00:29:21.230Z,21.70
2019-03-15T00:31:58.347Z,22.50
2019-03-15T00:34:35.499Z,22.50
2019-03-15T00:37:12.591Z,22.20
2019-03-15T00:39:49.785Z,22.40
2019-03-15T00:45:01.775Z,22.90
2019-03-15T00:47:39.000Z,22.20
2019-03-15T00:52:51.358Z,22.10
2019-03-15T01:03:12.404Z,22.10
2019-03-15T01:05:49.621Z,22.50
2019-03-15T01:11:03.613Z,22.40
2019-03-15T01:13:58.213Z,21.90
2019-03-15T01:16:35.714Z,22.10
2019-03-15T01:19:13.359Z,22.50
2019-03-15T01:34:49.205Z,22.30
2019-03-15T01:40:01.224Z,22.80
2019-03-15T01:42:38.565Z,23.20
2019-03-15T01:47:50.552Z,22.50
2019-03-15T01:50:27.752Z,22.90
2019-03-15T01:58:14.599Z,22.60
2019-03-15T02:00:51.769Z,23.00
2019-03-15T02:03:29.279Z,23.10
2019-03-15T02:06:06.463Z,22.90
2019-03-15T02:08:43.587Z,22.60
2019-03-15T02:13:56.738Z,23.80
2019-03-15T02:16:34.452Z,23.60
2019-03-15T02:19:11.744Z,23.00
2019-03-15T02:21:48.871Z,22.50
2019-03-15T02:24:26.096Z,22.60
2019-03-15T02:29:40.542Z,22.70
2019-03-15T02:32:17.623Z,23.30
2019-03-15T02:37:29.443Z,23.10
2019-03-15T02:40:06.453Z,23.10
2019-03-15T02:42:43.554Z,23.30
2019-03-15T02:45:20.812Z,23.20
2019-03-15T02:47:57.883Z,22.20
2019-03-15T02:53:12.620Z,22.80
2019-03-15T03:01:00.256Z,20.70
2019-03-15T03:03:37.349Z,23.30
2019-03-15T03:06:14.375Z,23.60
2019-03-15T03:08:53.069Z,23.50
2019-03-15T03:14:04.942Z,23.90
2019-03-15T03:16:42.157Z,23.70
2019-03-15T03:19:20.159Z,23.80
2019-03-15T03:21:57.324Z,23.50
2019-03-15T03:24:34.512Z,23.60
2019-03-15T03:32:21.300Z,24.20
2019-03-15T03:34:58.418Z,23.90
2019-03-15T03:45:19.412Z,24.00
2019-03-15T03:47:56.494Z,24.50
2019-03-15T03:50:33.527Z,24.40
2019-03-15T03:53:10.718Z,24.50
2019-03-15T03:55:47.802Z,24.80
2019-03-15T03:58:24.815Z,24.70
2019-03-15T04:01:02.137Z,24.60
2019-03-15T04:03:39.357Z,24.40
2019-03-15T04:06:16.925Z,24.20
2019-03-15T04:08:54.540Z,24.30
2019-03-15T04:11:31.666Z,24.70
2019-03-15T04:14:09.245Z,24.90
2019-03-15T04:16:46.448Z,25.00
2019-03-15T04:19:24.686Z,25.00
2019-03-15T04:22:01.845Z,24.80
2019-03-15T04:24:39.188Z,24.70
2019-03-15T04:27:16.267Z,24.50
2019-03-15T04:29:53.491Z,24.30
2019-03-15T04:32:30.648Z,24.20
2019-03-15T04:35:07.837Z,24.30
2019-03-15T04:37:48.499Z,24.70
2019-03-15T04:40:25.636Z,25.10
2019-03-15T04:43:16.451Z,25.30
2019-03-15T04:45:53.915Z,25.50
2019-03-15T04:48:31.083Z,25.40
2019-03-15T04:51:08.312Z,25.40
2019-03-15T04:53:45.507Z,25.90
2019-03-15T04:58:57.343Z,26.60
2019-03-15T05:01:34.514Z,26.30
2019-03-15T05:04:11.768Z,26.20
2019-03-15T05:11:58.388Z,26.60
2019-03-15T05:14:35.454Z,26.60
2019-03-15T05:17:12.543Z,26.50
2019-03-15T05:19:49.725Z,26.60
2019-03-15T05:22:26.870Z,26.80
2019-03-15T05:25:05.168Z,26.60
2019-03-15T05:27:42.248Z,26.50
2019-03-15T05:38:03.538Z,25.80
2019-03-15T05:43:15.331Z,26.20
2019-03-15T05:45:52.510Z,26.50
2019-03-15T05:48:29.753Z,26.50
2019-03-15T05:51:08.149Z,26.70
2019-03-15T05:53:45.264Z,27.20
2019-03-15T05:56:22.267Z,27.10
2019-03-15T05:58:59.334Z,27.00
2019-03-15T06:01:37.504Z,26.80
2019-03-15T06:04:14.655Z,26.90
2019-03-15T06:12:01.223Z,27.30
2019-03-15T06:19:47.673Z,27.50
2019-03-15T06:25:00.600Z,27.50
2019-03-15T06:27:37.815Z,27.40
2019-03-15T06:30:15.434Z,27.60
2019-03-15T06:32:52.568Z,27.50
2019-03-15T06:35:29.546Z,28.20
2019-03-15T06:38:06.746Z,27.90
2019-03-15T06:43:18.624Z,27.10
2019-03-15T06:45:55.877Z,27.10
2019-03-15T06:51:09.356Z,26.90
2019-03-15T06:53:47.909Z,26.90
2019-03-15T06:56:24.756Z,26.80
2019-03-15T06:59:01.902Z,27.20
2019-03-15T07:01:39.043Z,27.10
2019-03-15T07:04:16.195Z,27.30
2019-03-15T07:06:54.842Z,27.10
2019-03-15T07:09:31.962Z,27.80
2019-03-15T07:12:11.614Z,26.70
2019-03-15T07:14:53.188Z,26.80
2019-03-15T07:17:32.241Z,26.20
2019-03-15T07:20:11.435Z,25.90
2019-03-15T07:22:48.757Z,25.80
2019-03-15T07:30:36.310Z,25.40
2019-03-15T07:33:13.701Z,25.20
2019-03-15T07:35:51.371Z,25.00
2019-03-15T07:38:29.655Z,24.80
2019-03-15T07:41:07.900Z,24.70
2019-03-15T07:43:45.184Z,24.70
2019-03-15T07:46:24.355Z,24.70
2019-03-15T07:49:01.506Z,24.60
2019-03-15T07:51:39.575Z,24.60
2019-03-15T07:54:16.700Z,24.50
2019-03-15T07:56:56.696Z,24.30
2019-03-15T07:59:33.958Z,24.40
2019-03-15T08:02:10.952Z,24.20
2019-03-15T08:04:48.279Z,24.00
2019-03-15T08:07:36.221Z,24.00
2019-03-15T08:10:10.313Z,24.10
2019-03-15T08:12:49.620Z,24.10
2019-03-15T08:15:25.852Z,24.40
2019-03-15T08:18:03.292Z,24.30
2019-03-15T08:20:40.638Z,24.20
2019-03-15T08:23:17.772Z,24.40
2019-03-15T08:25:54.994Z,23.70
2019-03-15T08:28:32.387Z,23.90
2019-03-15T08:31:09.667Z,24.00
2019-03-15T08:33:46.869Z,24.00
2019-03-15T08:36:24.000Z,23.90
2019-03-15T08:39:01.288Z,23.80
2019-03-15T08:41:38.403Z,23.90
2019-03-15T08:44:25.200Z,24.10
2019-03-15T08:47:02.484Z,23.80
2019-03-15T08:49:39.727Z,23.70
2019-03-15T08:52:17.047Z,23.60
2019-03-15T08:55:04.495Z,23.70
2019-03-15T09:00:10.223Z,23.20
2019-03-15T09:02:47.372Z,23.40
2019-03-15T09:05:25.444Z,23.40
2019-03-15T09:10:39.195Z,23.40
2019-03-15T09:13:16.558Z,23.40
2019-03-15T09:15:55.397Z,23.10
2019-03-15T09:18:32.765Z,23.30
2019-03-15T09:21:10.036Z,23.10
2019-03-15T09:23:47.251Z,23.50
2019-03-15T09:26:24.474Z,23.30
2019-03-15T09:29:01.944Z,23.90
2019-03-15T09:31:47.563Z,23.00
2019-03-15T09:34:17.315Z,23.30
2019-03-15T09:36:54.466Z,23.50
2019-03-15T09:39:31.731Z,23.10
2019-03-15T09:42:09.034Z,22.70
2019-03-15T09:44:46.355Z,22.70
2019-03-15T09:47:26.392Z,22.60
2019-03-15T11:51:51.058Z,20.50
2019-03-15T11:59:37.746Z,19.50
2019-03-15T12:02:15.349Z,20.70
2019-03-15T12:04:52.441Z,20.40
2019-03-15T12:10:04.311Z,20.70
2019-03-15T12:12:41.696Z,21.10
2019-03-15T12:15:18.961Z,20.30
2019-03-15T12:17:56.415Z,20.60
2019-03-15T12:20:33.647Z,20.30
2019-03-15T12:23:12.381Z,20.40
2019-03-15T12:25:49.551Z,20.80
2019-03-15T12:28:28.372Z,20.90
2019-03-15T12:31:05.512Z,20.60
2019-03-15T12:33:42.556Z,20.30
2019-03-15T12:36:19.766Z,20.20
2019-03-15T12:38:58.445Z,20.90
2019-03-15T12:41:35.046Z,20.50
2019-03-15T12:44:12.344Z,21.20
2019-03-15T12:46:49.421Z,20.70
2019-03-15T12:49:26.479Z,21.40
2019-03-15T12:54:38.273Z,21.40
2019-03-15T12:59:49.962Z,21.10
2019-03-15T13:02:27.176Z,21.20
2019-03-15T13:05:04.343Z,21.30
2019-03-15T13:07:41.423Z,21.50
2019-03-15T13:10:19.207Z,21.00
2019-03-15T13:12:56.369Z,21.10
2019-03-15T13:15:33.640Z,20.80
2019-03-15T13:18:10.765Z,21.10
2019-03-15T13:20:47.976Z,21.30
2019-03-15T13:23:25.070Z,21.30
2019-03-15T13:31:11.485Z,21.50
2019-03-15T13:33:48.495Z,21.20
2019-03-15T13:36:25.591Z,21.00
2019-03-15T13:41:37.237Z,21.80
2019-03-15T13:44:14.297Z,21.60
2019-03-15T13:46:51.279Z,21.10
2019-03-15T13:49:28.364Z,22.00
2019-03-15T13:52:05.417Z,21.30
2019-03-15T13:54:42.431Z,21.20
2019-03-15T13:57:21.433Z,21.10
2019-03-15T13:59:57.837Z,21.30
2019-03-15T14:02:34.954Z,21.50
2019-03-15T14:05:12.252Z,21.10
2019-03-15T14:07:49.405Z,21.40
2019-03-15T14:10:26.446Z,21.00
2019-03-15T14:13:03.546Z,21.20
2019-03-15T14:15:40.706Z,21.90
2019-03-15T14:18:17.855Z,21.20
2019-03-15T14:20:56.722Z,21.50
2019-03-15T14:23:33.881Z,21.30
2019-03-15T14:26:11.079Z,21.40
2019-03-15T14:31:22.825Z,21.80
2019-03-15T14:33:59.967Z,22.20
2019-03-15T14:39:12.306Z,21.80
2019-03-15T14:44:24.425Z,22.20
2019-03-15T14:49:38.212Z,22.60
2019-03-15T14:52:14.874Z,21.80
2019-03-15T14:57:26.740Z,22.10
2019-03-15T15:00:03.895Z,22.10
2019-03-15T15:02:40.946Z,22.00
2019-03-15T15:05:20.889Z,21.80
2019-03-15T15:07:57.975Z,22.30
2019-03-15T15:10:35.088Z,22.00
2019-03-15T15:13:12.119Z,22.20
2019-03-15T15:15:49.322Z,21.70
2019-03-15T15:18:26.399Z,22.30
2019-03-15T15:21:03.455Z,21.80
2019-03-15T15:23:41.276Z,21.90
2019-03-15T15:26:18.472Z,21.80
2019-03-15T15:28:55.615Z,22.20
2019-03-15T15:34:07.413Z,21.90
2019-03-15T15:36:44.516Z,22.10
2019-03-15T15:39:21.679Z,22.00
2019-03-15T15:44:34.715Z,22.40
2019-03-15T15:47:11.919Z,21.60
2019-03-15T15:49:48.951Z,21.50
2019-03-15T15:52:26.062Z,21.60
2019-03-15T15:55:03.111Z,21.80
2019-03-15T15:57:40.272Z,21.70
2019-03-15T16:00:18.308Z,21.40
2019-03-15T16:02:55.535Z,22.20
2019-03-15T16:05:41.662Z,21.60
2019-03-15T16:08:18.774Z,21.90
2019-03-15T16:10:56.013Z,21.40
2019-03-15T16:13:34.289Z,22.40
2019-03-15T16:16:12.510Z,21.90
2019-03-15T16:18:50.031Z,21.70
2019-03-15T16:24:01.991Z,21.40
2019-03-15T16:26:39.043Z,21.60
2019-03-15T16:29:16.155Z,22.40
2019-03-15T16:31:53.211Z,21.40
2019-03-15T16:34:30.376Z,21.60
2019-03-15T16:37:07.490Z,21.00
2019-03-15T16:39:44.524Z,22.00
2019-03-15T16:42:21.504Z,21.50
2019-03-15T16:47:34.795Z,21.20
2019-03-15T16:50:12.479Z,21.40
2019-03-15T16:52:50.124Z,21.80
2019-03-15T16:55:27.196Z,22.10
2019-03-15T16:58:04.216Z,21.40
2019-03-15T17:00:41.330Z,21.10
2019-03-15T17:03:18.725Z,21.70
2019-03-15T17:05:55.902Z,21.70
2019-03-15T17:08:32.984Z,21.70
2019-03-15T17:11:10.238Z,22.00
2019-03-15T17:13:47.184Z,21.40
2019-03-15T17:16:24.323Z,21.60
2019-03-15T17:24:10.873Z,22.30
2019-03-15T17:26:51.209Z,22.20
2019-03-15T17:29:26.027Z,22.00
2019-03-15T17:32:03.218Z,21.40
2019-03-15T17:34:40.400Z,21.80
2019-03-15T17:37:17.641Z,21.70
2019-03-15T17:42:29.590Z,21.90
2019-03-15T17:45:06.646Z,21.90
2019-03-15T17:47:43.755Z,22.20
2019-03-15T17:50:21.681Z,22.00
2019-03-15T17:52:58.747Z,22.10
2019-03-15T17:55:36.585Z,22.20
2019-03-15T17:58:13.841Z,21.80
2019-03-15T18:04:14.890Z,21.70
2019-03-15T18:06:53.085Z,21.70
2019-03-15T18:12:04.881Z,22.20
2019-03-15T18:14:42.077Z,22.90
2019-03-15T18:17:19.212Z,21.90
2019-03-15T18:19:56.259Z,21.80
2019-03-15T18:22:33.355Z,22.30
2019-03-15T18:25:10.945Z,22.80
2019-03-15T18:27:48.535Z,22.90
2019-03-15T18:33:02.418Z,21.50
2019-03-15T18:35:39.456Z,22.10
2019-03-15T18:38:16.508Z,21.80
2019-03-15T18:40:53.568Z,22.20
2019-03-15T18:43:31.711Z,22.70
2019-03-15T18:46:08.971Z,22.40
2019-03-15T18:48:46.195Z,22.60
2019-03-15T18:51:23.279Z,22.30
2019-03-15T18:54:00.341Z,22.40
2019-03-15T19:01:46.910Z,22.30
2019-03-15T19:06:58.738Z,22.90
2019-03-15T19:09:35.778Z,22.00
2019-03-15T19:14:47.627Z,22.20
2019-03-15T19:17:24.750Z,22.20
2019-03-15T19:20:01.830Z,22.30
2019-03-15T19:22:38.986Z,21.90
2019-03-15T19:25:16.408Z,22.30
2019-03-15T19:27:53.606Z,22.30
2019-03-15T19:30:30.755Z,22.00
2019-03-15T19:35:42.574Z,22.10
2019-03-15T19:38:19.830Z,22.50
2019-03-15T19:40:57.131Z,22.30
2019-03-15T19:43:34.335Z,22.70
2019-03-15T19:46:11.494Z,22.40
2019-03-15T19:48:48.657Z,22.00
2019-03-15T19:51:25.701Z,22.40
2019-03-15T19:54:02.821Z,22.50
2019-03-15T19:56:39.916Z,21.90
2019-03-15T19:59:18.456Z,21.90
2019-03-15T20:04:30.097Z,22.60
2019-03-15T20:09:41.932Z,22.30
2019-03-15T20:14:53.578Z,22.10
2019-03-15T20:17:30.615Z,22.50
2019-03-15T20:22:42.246Z,22.10
2019-03-15T20:25:19.773Z,22.20
2019-03-15T20:27:56.853Z,22.90
2019-03-15T20:30:33.915Z,22.00
2019-03-15T20:33:12.507Z,22.30
2019-03-15T20:35:51.972Z,22.30
2019-03-15T20:38:28.463Z,22.10
2019-03-15T20:41:05.847Z,22.30
2019-03-15T20:43:42.883Z,22.10
2019-03-15T20:46:19.946Z,22.50
2019-03-15T20:48:57.040Z,23.30
2019-03-15T20:51:35.802Z,22.70
2019-03-15T20:54:12.938Z,22.60
2019-03-15T20:56:50.006Z,23.00
2019-03-15T21:02:02.474Z,22.20
2019-03-15T21:04:39.527Z,22.50
2019-03-15T21:07:17.034Z,22.50
2019-03-15T21:09:54.775Z,22.50
2019-03-15T21:12:33.298Z,22.50
2019-03-15T21:15:10.494Z,22.50
2019-03-15T21:17:47.594Z,22.60
2019-03-15T21:20:24.721Z,22.60
2019-03-15T21:23:01.812Z,22.60
2019-03-15T21:25:38.982Z,22.70
2019-03-15T21:28:17.324Z,22.60
2019-03-15T21:30:54.393Z,22.60
2019-03-15T21:33:31.407Z,22.70
2019-03-15T21:36:08.530Z,22.70
2019-03-15T21:38:48.414Z,22.80
2019-03-15T21:41:23.749Z,22.80
2019-03-15T21:44:01.171Z,22.80
2019-03-15T21:46:38.230Z,22.80
2019-03-15T21:49:15.246Z,22.80
2019-03-15T21:51:52.458Z,22.90
2019-03-15T21:54:29.635Z,22.90
2019-03-15T21:57:06.928Z,22.90
2019-03-15T21:59:44.114Z,22.90
2019-03-15T22:02:21.392Z,23.40
2019-03-15T22:04:58.668Z,23.00
2019-03-15T22:07:35.831Z,23.00
2019-03-15T22:10:13.598Z,23.00
2019-03-15T22:12:52.519Z,23.10
2019-03-15T22:15:29.821Z,23.00
2019-03-15T22:18:06.935Z,23.00
2019-03-15T22:20:44.050Z,23.00
2019-03-15T22:23:21.109Z,23.00
2019-03-15T22:25:58.217Z,23.00
2019-03-15T22:28:35.349Z,23.00
2019-03-15T22:31:16.866Z,23.00
2019-03-15T22:33:50.790Z,23.00
2019-03-15T22:36:27.921Z,23.00
2019-03-15T22:39:05.210Z,23.10
2019-03-15T22:41:42.368Z,23.20
2019-03-15T22:44:19.543Z,23.20
2019-03-15T22:46:56.693Z,23.20
2019-03-15T22:49:35.831Z,23.20
2019-03-15T22:52:12.903Z,23.30
2019-03-15T22:54:50.044Z,23.30
2019-03-15T22:57:27.225Z,23.30
2019-03-15T23:00:04.326Z,23.30
2019-03-15T23:02:41.414Z,23.30
2019-03-15T23:05:19.423Z,23.30
2019-03-15T23:07:57.215Z,23.30
2019-03-15T23:10:34.358Z,23.40
2019-03-15T23:13:11.738Z,23.30
2019-03-15T23:15:48.860Z,23.20
2019-03-15T23:18:26.202Z,23.00
2019-03-15T23:21:03.305Z,23.00
2019-03-15T23:23:40.382Z,22.90
2019-03-15T23:26:17.636Z,23.10
2019-03-15T23:28:54.816Z,22.90
2019-03-15T23:31:43.067Z,23.00
2019-03-15T23:34:10.365Z,23.70
2019-03-15T23:36:47.578Z,23.30
2019-03-15T23:47:08.639Z,22.80
2019-03-15T23:49:45.847Z,23.20
2019-03-15T23:52:22.883Z,23.10
2019-03-15T23:55:00.038Z,22.90
